Mount Pleasant, IA

3:40 PM CDT on September 03, 2015 (GMT -0500)
Mount Pleasant Municipal | | Change Station
CLOSE
Current Station
Airport
Location: Mount Pleasant,
Elevation: 735 ft
Nearby Weather Stations

Elev 735 ft 40.95 °N, 91.51 °W | Updated 25 minutes ago

Clear
Clear
95 °F
Feels Like 93 °F
N
8
Wind Variable Wind from SSW

Today
High -- | Low -- °F
--% Chance of Precip.
Yesterday
High -- | Low -- °F
Precip. -- in
6:34 AM 7:35 PM
Waning Gibbous, 67% visible
Pressure 29.90 in
Visibility 10.0 miles
Clouds Clear
Heat Index 93 °F
Dew Point 57 °F
Humidity 28%
Rainfall 0.00 in
Snow Depth Not available.
UV 6 out of 12
Pollen 9.00 out of 12
Air Quality Not available.
Flu Activity Not available.
METAR KMPZ 032015Z AUTO 21007KT 10SM CLR 35/14 A2990 RMK AO2 T03490139
Pressure 29.90 in
Visibility 10.0 miles
Clouds Clear
Heat Index 93 °F
Dew Point 57 °F
Humidity 28%
Rainfall 0.00 in
Snow Depth Not available.
UV 6 out of 12
Pollen 9.00 out of 12
Air Quality Not available.
Flu Activity Not available.
METAR KMPZ 032015Z AUTO 21007KT 10SM CLR 35/14 A2990 RMK AO2 T03490139

10-Day Weather Forecast

×

Almanac

Astronomy

Sep. 03, 2015 Rise Set
Actual Time
Civil Twilight
Nautical Twilight
Astronomical Twilight
Moon
Length of Visible Light
Length of Day
Tomorrow will be .
, % of the Moon is Illuminated

Today's Extremes

State Highs State Lows

Community

WunderPhotos

Upload Photos

1,852,036 photos uploaded!

WunderBlogs® & News

Nearby

Air Quality

  Air Quality AQ Index Pollutant
Not available.

Snow Depth

Station Depth Elevation

Earthquake Activity

City Distance Mag. Time & Date
Minimum magnitude displayed is 2.5.

Coastal Water Temperatures

Place Temperature

Stations

Nearby Weather Stations

Station Location Temp. Windchill Dew Point Humidity Wind Precip. Elev Updated Type